THA329 VTBS-VOHS
Flight info
| Callsign | THA329 |
|---|---|
| Flight time | N/A |
| Altitude | 40000 |
| Route | PASTO1J PASTO L301 VVZ W29 ANBAS VITUR8 |
| Aircraft | B772/H-SDE2E3FGHIJ5LORVWXY/LB1D1 |
Departure
| Time | N/A |
|---|---|
| Airport | Suvarnabhumi Airport (VTBS) |
Arrival
| Time | 2026-04-25 20:19 |
|---|---|
| Airport | Rajiv Gandhi International Airport (VOHS) |
| Time | Latitude | Longitude | Altitude | Speed | Heading |
|---|---|---|---|---|---|
| 2026-04-25 19:46 | 17.33216 | 80.77041 | 39843 ft | 432 kts | 260° |
| 2026-04-25 19:47 | 17.32347 | 80.70847 | 39834 ft | 432 kts | 260° |
| 2026-04-25 19:47 | 17.31473 | 80.64638 | 39835 ft | 432 kts | 260° |
| 2026-04-25 19:48 | 17.30603 | 80.58463 | 39831 ft | 433 kts | 260° |
| 2026-04-25 19:48 | 17.29726 | 80.52254 | 39827 ft | 431 kts | 260° |
| 2026-04-25 19:49 | 17.29143 | 80.48135 | 39826 ft | 432 kts | 260° |
| 2026-04-25 19:49 | 17.27966 | 80.39837 | 39822 ft | 430 kts | 260° |
| 2026-04-25 19:50 | 17.26646 | 80.30561 | 39832 ft | 433 kts | 259° |
| 2026-04-25 19:51 | 17.25762 | 80.24371 | 39834 ft | 430 kts | 259° |
| 2026-04-25 19:51 | 17.24878 | 80.18191 | 39766 ft | 427 kts | 259° |
| 2026-04-25 19:51 | 17.24446 | 80.15156 | 39084 ft | 426 kts | 261° |
| 2026-04-25 19:52 | 17.24254 | 80.12058 | 38223 ft | 429 kts | 266° |
| 2026-04-25 19:52 | 17.24235 | 80.08971 | 37488 ft | 428 kts | 267° |
| 2026-04-25 19:52 | 17.24226 | 80.05876 | 36757 ft | 427 kts | 267° |
| 2026-04-25 19:52 | 17.24215 | 80.02763 | 36014 ft | 427 kts | 267° |
| 2026-04-25 19:53 | 17.24202 | 79.99669 | 35269 ft | 426 kts | 266° |
| 2026-04-25 19:53 | 17.24188 | 79.96616 | 34497 ft | 427 kts | 266° |
| 2026-04-25 19:53 | 17.24170 | 79.93481 | 33699 ft | 444 kts | 267° |
| 2026-04-25 19:53 | 17.24151 | 79.90166 | 32832 ft | 459 kts | 266° |
| 2026-04-25 19:54 | 17.24133 | 79.86864 | 31993 ft | 462 kts | 267° |
| 2026-04-25 19:54 | 17.24114 | 79.83476 | 31094 ft | 463 kts | 267° |
| 2026-04-25 19:54 | 17.24095 | 79.80149 | 30312 ft | 461 kts | 267° |
| 2026-04-25 19:54 | 17.24082 | 79.77907 | 29960 ft | 456 kts | 267° |
| 2026-04-25 19:55 | 17.24056 | 79.73547 | 29219 ft | 448 kts | 267° |
| 2026-04-25 19:55 | 17.24036 | 79.70328 | 28627 ft | 442 kts | 267° |
| 2026-04-25 19:55 | 17.24015 | 79.67141 | 28027 ft | 438 kts | 267° |
| 2026-04-25 19:55 | 17.23993 | 79.64005 | 27430 ft | 433 kts | 267° |
| 2026-04-25 19:56 | 17.23972 | 79.60860 | 26830 ft | 429 kts | 267° |
| 2026-04-25 19:56 | 17.23949 | 79.57752 | 26243 ft | 425 kts | 267° |
| 2026-04-25 19:56 | 17.23927 | 79.54721 | 25674 ft | 421 kts | 267° |
| 2026-04-25 19:56 | 17.23904 | 79.51665 | 25101 ft | 417 kts | 267° |
| 2026-04-25 19:57 | 17.23881 | 79.48652 | 24539 ft | 414 kts | 267° |
| 2026-04-25 19:57 | 17.23858 | 79.45662 | 23980 ft | 411 kts | 268° |
| 2026-04-25 19:57 | 17.23834 | 79.42683 | 23415 ft | 408 kts | 268° |
| 2026-04-25 19:57 | 17.23810 | 79.39750 | 22853 ft | 406 kts | 268° |
| 2026-04-25 19:58 | 17.23786 | 79.36833 | 22298 ft | 403 kts | 268° |
| 2026-04-25 19:58 | 17.23762 | 79.33915 | 21753 ft | 400 kts | 268° |
| 2026-04-25 19:58 | 17.23737 | 79.31038 | 21201 ft | 398 kts | 268° |
| 2026-04-25 19:58 | 17.23712 | 79.28136 | 20638 ft | 396 kts | 268° |
| 2026-04-25 19:59 | 17.23687 | 79.25285 | 20091 ft | 394 kts | 269° |
| 2026-04-25 19:59 | 17.23661 | 79.22437 | 19531 ft | 392 kts | 269° |
| 2026-04-25 19:59 | 17.23635 | 79.19599 | 18965 ft | 391 kts | 269° |
| 2026-04-25 19:59 | 17.23609 | 79.16764 | 18413 ft | 389 kts | 270° |
| 2026-04-25 20:00 | 17.23582 | 79.13944 | 17854 ft | 388 kts | 270° |
| 2026-04-25 20:00 | 17.23564 | 79.12066 | 17479 ft | 388 kts | 270° |
| 2026-04-25 20:00 | 17.23243 | 79.08340 | 16736 ft | 387 kts | 263° |
| 2026-04-25 20:00 | 17.22807 | 79.05568 | 16182 ft | 386 kts | 262° |
| 2026-04-25 20:01 | 17.21928 | 79.00063 | 15080 ft | 384 kts | 262° |
| 2026-04-25 20:01 | 17.21491 | 78.97326 | 14529 ft | 383 kts | 263° |
| 2026-04-25 20:01 | 17.21053 | 78.94590 | 13970 ft | 382 kts | 263° |
| 2026-04-25 20:02 | 17.20619 | 78.91877 | 13412 ft | 381 kts | 263° |
| 2026-04-25 20:02 | 17.20181 | 78.89143 | 12842 ft | 379 kts | 263° |
| 2026-04-25 20:02 | 17.19749 | 78.86448 | 12293 ft | 378 kts | 263° |
| 2026-04-25 20:02 | 17.19316 | 78.83742 | 11740 ft | 376 kts | 263° |
| 2026-04-25 20:03 | 17.18886 | 78.81063 | 11194 ft | 375 kts | 263° |
| 2026-04-25 20:03 | 17.18454 | 78.78378 | 10700 ft | 371 kts | 263° |
| 2026-04-25 20:03 | 17.18038 | 78.75796 | 10608 ft | 356 kts | 263° |
| 2026-04-25 20:03 | 17.17633 | 78.73286 | 10540 ft | 341 kts | 263° |
| 2026-04-25 20:04 | 17.17247 | 78.70892 | 10425 ft | 330 kts | 263° |
| 2026-04-25 20:04 | 17.16875 | 78.68580 | 10297 ft | 320 kts | 263° |
| 2026-04-25 20:04 | 17.16509 | 78.66310 | 10166 ft | 310 kts | 263° |
| 2026-04-25 20:04 | 17.16157 | 78.64124 | 10039 ft | 302 kts | 263° |
| 2026-04-25 20:05 | 17.15807 | 78.61955 | 9751 ft | 300 kts | 263° |
| 2026-04-25 20:05 | 17.15465 | 78.59833 | 9401 ft | 301 kts | 263° |
| 2026-04-25 20:05 | 17.15116 | 78.57671 | 9058 ft | 302 kts | 263° |
| 2026-04-25 20:05 | 17.14764 | 78.55493 | 8726 ft | 302 kts | 263° |
| 2026-04-25 20:06 | 17.14532 | 78.53347 | 8412 ft | 299 kts | 269° |
| 2026-04-25 20:06 | 17.14475 | 78.51186 | 8263 ft | 291 kts | 271° |
| 2026-04-25 20:06 | 17.14442 | 78.49088 | 8144 ft | 283 kts | 270° |
| 2026-04-25 20:06 | 17.14406 | 78.47056 | 8012 ft | 278 kts | 270° |
| 2026-04-25 20:07 | 17.14367 | 78.45025 | 7876 ft | 283 kts | 270° |
| 2026-04-25 20:07 | 17.14326 | 78.42962 | 7726 ft | 284 kts | 270° |
| 2026-04-25 20:07 | 17.14285 | 78.40916 | 7582 ft | 281 kts | 270° |
| 2026-04-25 20:07 | 17.14243 | 78.38877 | 7437 ft | 280 kts | 270° |
| 2026-04-25 20:08 | 17.14202 | 78.36853 | 7294 ft | 281 kts | 269° |
| 2026-04-25 20:08 | 17.14160 | 78.34793 | 7147 ft | 281 kts | 269° |
| 2026-04-25 20:08 | 17.14117 | 78.32755 | 7000 ft | 280 kts | 269° |
| 2026-04-25 20:08 | 17.14076 | 78.30740 | 6850 ft | 276 kts | 269° |
| 2026-04-25 20:09 | 17.14035 | 78.28755 | 6707 ft | 270 kts | 269° |
| 2026-04-25 20:09 | 17.13994 | 78.26811 | 6562 ft | 264 kts | 268° |
| 2026-04-25 20:09 | 17.13955 | 78.24928 | 6422 ft | 258 kts | 268° |
| 2026-04-25 20:09 | 17.13921 | 78.23067 | 6294 ft | 253 kts | 269° |
| 2026-04-25 20:10 | 17.13912 | 78.21262 | 6215 ft | 245 kts | 269° |
| 2026-04-25 20:10 | 17.13919 | 78.19463 | 5939 ft | 249 kts | 269° |
| 2026-04-25 20:10 | 17.13929 | 78.17654 | 5593 ft | 254 kts | 269° |
| 2026-04-25 20:10 | 17.13946 | 78.15801 | 5272 ft | 254 kts | 269° |
| 2026-04-25 20:11 | 17.13972 | 78.13975 | 4920 ft | 249 kts | 269° |
| 2026-04-25 20:11 | 17.14182 | 78.12202 | 4565 ft | 246 kts | 288° |
| 2026-04-25 20:11 | 17.15151 | 78.10761 | 4243 ft | 241 kts | 321° |
| 2026-04-25 20:11 | 17.16650 | 78.10072 | 4015 ft | 237 kts | 351° |
| 2026-04-25 20:12 | 17.18326 | 78.09911 | 3805 ft | 244 kts | 359° |
| 2026-04-25 20:12 | 17.20003 | 78.09965 | 3639 ft | 237 kts | 17° |
| 2026-04-25 20:12 | 17.21407 | 78.10780 | 3613 ft | 228 kts | 46° |
| 2026-04-25 20:12 | 17.22046 | 78.11646 | 3620 ft | 221 kts | 67° |
| 2026-04-25 20:13 | 17.22408 | 78.13619 | 3614 ft | 202 kts | 89° |
| 2026-04-25 20:13 | 17.22471 | 78.15081 | 3615 ft | 197 kts | 91° |
| 2026-04-25 20:13 | 17.22505 | 78.16513 | 3612 ft | 198 kts | 92° |
| 2026-04-25 20:13 | 17.22529 | 78.17948 | 3610 ft | 198 kts | 92° |
| 2026-04-25 20:14 | 17.22550 | 78.19388 | 3605 ft | 195 kts | 92° |
| 2026-04-25 20:14 | 17.22570 | 78.20761 | 3608 ft | 180 kts | 92° |
| 2026-04-25 20:14 | 17.22588 | 78.22018 | 3610 ft | 168 kts | 92° |
| 2026-04-25 20:14 | 17.22604 | 78.23247 | 3609 ft | 171 kts | 92° |
| 2026-04-25 20:15 | 17.22621 | 78.24506 | 3601 ft | 173 kts | 92° |
| 2026-04-25 20:15 | 17.22639 | 78.25761 | 3607 ft | 171 kts | 92° |
| 2026-04-25 20:15 | 17.22658 | 78.27008 | 3606 ft | 171 kts | 92° |
| 2026-04-25 20:15 | 17.22676 | 78.28256 | 3602 ft | 172 kts | 92° |
| 2026-04-25 20:16 | 17.22694 | 78.29491 | 3600 ft | 167 kts | 93° |
| 2026-04-25 20:16 | 17.22711 | 78.30701 | 3600 ft | 168 kts | 93° |
| 2026-04-25 20:16 | 17.22728 | 78.31863 | 3594 ft | 150 kts | 92° |
| 2026-04-25 20:16 | 17.22744 | 78.32950 | 3446 ft | 150 kts | 93° |
| 2026-04-25 20:17 | 17.22759 | 78.34019 | 3266 ft | 146 kts | 94° |
| 2026-04-25 20:17 | 17.22773 | 78.35074 | 3098 ft | 144 kts | 94° |
| 2026-04-25 20:17 | 17.22787 | 78.36126 | 2910 ft | 144 kts | 93° |
| 2026-04-25 20:17 | 17.22802 | 78.37166 | 2723 ft | 145 kts | 92° |
| 2026-04-25 20:18 | 17.22820 | 78.38218 | 2544 ft | 145 kts | 92° |
| 2026-04-25 20:18 | 17.22831 | 78.39277 | 2370 ft | 146 kts | 92° |
| 2026-04-25 20:18 | 17.22850 | 78.40339 | 2181 ft | 146 kts | 91° |
| 2026-04-25 20:18 | 17.22863 | 78.41396 | 2005 ft | 147 kts | 90° |
| 2026-04-25 20:19 | 17.22875 | 78.42378 | 1984 ft | 112 kts | 87° |
| 2026-04-25 20:19 | 17.22881 | 78.43008 | 2008 ft | 59 kts | 90° |
| 2026-04-25 20:19 | 17.22898 | 78.43304 | 2016 ft | 32 kts | 78° |
| 2026-04-25 20:19 | 17.22972 | 78.43507 | 2025 ft | 28 kts | 59° |
| 2026-04-25 20:20 | 17.23057 | 78.43636 | 2029 ft | 25 kts | 54° |
| 2026-04-25 20:20 | 17.23185 | 78.43701 | 2029 ft | 18 kts | 360° |
| 2026-04-25 20:20 | 17.23298 | 78.43692 | 2027 ft | 15 kts | 334° |
| 2026-04-25 20:20 | 17.23340 | 78.43574 | 2022 ft | 20 kts | 270° |
| 2026-04-25 20:21 | 17.23340 | 78.43411 | 2017 ft | 23 kts | 269° |
| 2026-04-25 20:21 | 17.23332 | 78.43233 | 2016 ft | 24 kts | 269° |
| 2026-04-25 20:21 | 17.23334 | 78.43057 | 2012 ft | 19 kts | 270° |
| 2026-04-25 20:21 | 17.23332 | 78.42926 | 2007 ft | 17 kts | 268° |
| 2026-04-25 20:22 | 17.23329 | 78.42794 | 2002 ft | 16 kts | 268° |
| 2026-04-25 20:22 | 17.23328 | 78.42743 | 2000 ft | 3 kts | 273° |
| 2026-04-25 20:22 | 17.23354 | 78.42728 | 1999 ft | 5 kts | 5° |
| 2026-04-25 20:22 | 17.23392 | 78.42732 | 1999 ft | 5 kts | 359° |
| 2026-04-25 20:23 | 17.23423 | 78.42732 | 1998 ft | 0 kts | 359° |